KFMN/FMN METAR and TAF weather

Enter ICAO airport designator
Station Type Date Time Source
KFMN METAR 2020/07/11 20:53 UTC NOAA

KFMN 112053Z 26007G17KT 10SM CLR 37/M02 A3022 RMK AO2 SLP158 T03721022 58017


Station Type Date Time Source
KFMN Decoded METAR 2020/07/11 20:53 UTC NOAA

FARMINGTON FOUR CORNERS, NM, United States (KFMN) 36-45N 108-14W 1685M
Jul 11, 2020 - 04:53 PM EDT / 2020.07.11 2053 UTC
Wind: from the W (260 degrees) at 8 MPH (7 KT) gusting to 20 MPH (17 KT):0
Visibility: 10 mile(s):0
Sky conditions: clear
Temperature: 99.0 F (37.2 C)
Dew Point: 28.0 F (-2.2 C)
Relative Humidity: 8%
Pressure (altimeter): 30.22 in. Hg (1023 hPa)
Pressure tendency: 0.05 inches (1.7 hPa) lower than three hours ago
ob: KFMN 112053Z 26007G17KT 10SM CLR 37/M02 A3022 RMK AO2 SLP158 T03721022 58017
cycle: 21

Station Type Date Time Source
KFMN TAF 2020/07/11 18:30 UTC NOAA

TAF KFMN 111728Z 1118/1218 26008KT P6SM SCT150
FM112100 28014G22KT P6SM SCT130 SCT250
FM120200 31006KT P6SM FEW150 SCT250
FM120800 06006KT P6SM SCT250
FM121700 27008KT P6SM SCT250

Example: see airport list